sensor_id;sensor_type;location;lat;lon;timestamp;P1;durP1;ratioP1;P2;durP2;ratioP2
77880;SDS011;67077;50.298;18.996;2023-09-12T12:09:39;13.40;;;9.10;;
77880;SDS011;67077;50.298;18.996;2023-09-12T12:12:14;14.60;;;9.70;;
77880;SDS011;67077;50.298;18.996;2023-09-12T12:14:42;13.70;;;9.40;;
77880;SDS011;67077;50.298;18.996;2023-09-12T12:17:12;12.10;;;9.10;;
77880;SDS011;67077;50.298;18.996;2023-09-12T12:19:44;12.40;;;9.60;;
77880;SDS011;67077;50.298;18.996;2023-09-12T12:22:13;11.90;;;9.20;;
77880;SDS011;67077;50.298;18.996;2023-09-12T12:24:43;13.40;;;9.90;;
77880;SDS011;67077;50.298;18.996;2023-09-12T12:27:14;11.80;;;9.80;;
77880;SDS011;67077;50.298;18.996;2023-09-12T12:29:42;13.00;;;9.70;;
77880;SDS011;67077;50.298;18.996;2023-09-12T12:32:14;12.50;;;9.90;;
77880;SDS011;67077;50.298;18.996;2023-09-12T12:34:47;17.10;;;9.90;;
77880;SDS011;67077;50.298;18.996;2023-09-12T12:37:17;10.90;;;9.80;;
77880;SDS011;67077;50.298;18.996;2023-09-12T12:39:45;13.70;;;10.10;;
77880;SDS011;67077;50.298;18.996;2023-09-12T12:42:14;11.80;;;9.80;;
77880;SDS011;67077;50.298;18.996;2023-09-12T12:44:42;11.70;;;9.70;;
77880;SDS011;67077;50.298;18.996;2023-09-12T12:47:12;14.20;;;9.90;;
77880;SDS011;67077;50.298;18.996;2023-09-12T12:49:41;12.00;;;10.10;;
77880;SDS011;67077;50.298;18.996;2023-09-12T12:52:09;11.40;;;10.10;;
77880;SDS011;67077;50.298;18.996;2023-09-12T12:54:38;15.80;;;10.50;;
77880;SDS011;67077;50.298;18.996;2023-09-12T12:57:10;12.10;;;10.10;;
77880;SDS011;67077;50.298;18.996;2023-09-12T12:59:44;12.60;;;10.70;;
77880;SDS011;67077;50.298;18.996;2023-09-12T13:02:16;16.10;;;10.60;;
77880;SDS011;67077;50.298;18.996;2023-09-12T13:04:44;12.10;;;10.10;;
77880;SDS011;67077;50.298;18.996;2023-09-12T13:07:12;13.50;;;10.40;;
77880;SDS011;67077;50.298;18.996;2023-09-12T13:09:40;13.70;;;10.30;;
77880;SDS011;67077;50.298;18.996;2023-09-12T13:12:09;11.50;;;9.80;;
77880;SDS011;67077;50.298;18.996;2023-09-12T13:14:38;14.30;;;10.30;;
77880;SDS011;67077;50.298;18.996;2023-09-12T13:17:06;11.80;;;10.10;;
77880;SDS011;67077;50.298;18.996;2023-09-12T13:19:34;14.00;;;9.70;;
77880;SDS011;67077;50.298;18.996;2023-09-12T13:22:03;14.00;;;9.70;;
77880;SDS011;67077;50.298;18.996;2023-09-12T13:24:31;13.20;;;9.80;;
77880;SDS011;67077;50.298;18.996;2023-09-12T13:26:59;14.10;;;10.30;;
77880;SDS011;67077;50.298;18.996;2023-09-12T13:29:27;11.20;;;9.90;;
77880;SDS011;67077;50.298;18.996;2023-09-12T13:31:54;13.80;;;9.90;;
77880;SDS011;67077;50.298;18.996;2023-09-12T13:34:22;14.20;;;9.90;;
77880;SDS011;67077;50.298;18.996;2023-09-12T13:36:51;15.00;;;10.10;;
77880;SDS011;67077;50.298;18.996;2023-09-12T13:39:19;13.10;;;9.90;;
77880;SDS011;67077;50.298;18.996;2023-09-12T13:41:47;14.50;;;9.70;;
77880;SDS011;67077;50.298;18.996;2023-09-12T13:44:16;11.40;;;9.70;;
77880;SDS011;67077;50.298;18.996;2023-09-12T13:46:45;10.50;;;9.40;;
77880;SDS011;67077;50.298;18.996;2023-09-12T13:49:14;15.50;;;10.20;;
77880;SDS011;67077;50.298;18.996;2023-09-12T13:51:42;11.90;;;9.40;;
77880;SDS011;67077;50.298;18.996;2023-09-12T13:54:10;12.70;;;9.40;;
77880;SDS011;67077;50.298;18.996;2023-09-12T13:56:44;16.00;;;10.30;;
77880;SDS011;67077;50.298;18.996;2023-09-12T13:59:12;13.40;;;9.80;;
77880;SDS011;67077;50.298;18.996;2023-09-12T14:01:40;15.50;;;9.90;;
77880;SDS011;67077;50.298;18.996;2023-09-12T14:04:09;11.20;;;9.30;;
77880;SDS011;67077;50.298;18.996;2023-09-12T14:06:37;13.60;;;10.00;;
77880;SDS011;67077;50.298;18.996;2023-09-12T14:09:05;12.80;;;9.10;;
77880;SDS011;67077;50.298;18.996;2023-09-12T14:11:34;10.20;;;9.00;;
77880;SDS011;67077;50.298;18.996;2023-09-12T14:14:02;11.70;;;9.70;;
77880;SDS011;67077;50.298;18.996;2023-09-12T14:16:32;16.00;;;10.50;;
77880;SDS011;67077;50.298;18.996;2023-09-12T14:19:00;14.10;;;9.50;;
77880;SDS011;67077;50.298;18.996;2023-09-12T14:21:28;17.30;;;9.80;;
77880;SDS011;67077;50.298;18.996;2023-09-12T14:23:57;12.50;;;9.40;;
77880;SDS011;67077;50.298;18.996;2023-09-12T14:26:25;10.40;;;8.90;;
77880;SDS011;67077;50.298;18.996;2023-09-12T14:28:53;11.50;;;9.10;;
77880;SDS011;67077;50.298;18.996;2023-09-12T14:31:21;12.60;;;9.60;;
77880;SDS011;67077;50.298;18.996;2023-09-12T14:33:50;12.10;;;9.00;;
77880;SDS011;67077;50.298;18.996;2023-09-12T14:36:20;13.90;;;9.20;;
77880;SDS011;67077;50.298;18.996;2023-09-12T14:38:48;13.20;;;9.00;;
77880;SDS011;67077;50.298;18.996;2023-09-12T14:41:16;14.10;;;9.40;;
77880;SDS011;67077;50.298;18.996;2023-09-12T14:43:44;14.20;;;9.70;;
77880;SDS011;67077;50.298;18.996;2023-09-12T14:46:12;16.70;;;9.90;;
77880;SDS011;67077;50.298;18.996;2023-09-12T14:48:40;10.40;;;9.40;;
77880;SDS011;67077;50.298;18.996;2023-09-12T14:51:08;12.60;;;8.80;;
77880;SDS011;67077;50.298;18.996;2023-09-12T14:53:38;11.30;;;8.80;;
77880;SDS011;67077;50.298;18.996;2023-09-12T14:56:11;13.30;;;9.30;;
77880;SDS011;67077;50.298;18.996;2023-09-12T14:58:39;12.80;;;9.60;;
77880;SDS011;67077;50.298;18.996;2023-09-12T15:01:07;14.10;;;9.50;;
77880;SDS011;67077;50.298;18.996;2023-09-12T15:03:35;12.40;;;9.30;;
77880;SDS011;67077;50.298;18.996;2023-09-12T15:06:05;17.70;;;9.10;;
77880;SDS011;67077;50.298;18.996;2023-09-12T15:08:34;14.80;;;9.50;;
77880;SDS011;67077;50.298;18.996;2023-09-12T15:11:03;14.50;;;9.10;;
77880;SDS011;67077;50.298;18.996;2023-09-12T15:13:33;12.70;;;9.30;;
77880;SDS011;67077;50.298;18.996;2023-09-12T15:16:01;11.60;;;9.70;;
77880;SDS011;67077;50.298;18.996;2023-09-12T15:18:34;15.20;;;9.40;;
77880;SDS011;67077;50.298;18.996;2023-09-12T15:21:01;14.20;;;9.90;;
77880;SDS011;67077;50.298;18.996;2023-09-12T15:23:29;12.90;;;9.40;;
77880;SDS011;67077;50.298;18.996;2023-09-12T15:25:58;14.50;;;10.20;;
77880;SDS011;67077;50.298;18.996;2023-09-12T15:28:25;13.80;;;10.40;;
77880;SDS011;67077;50.298;18.996;2023-09-12T15:30:53;11.30;;;9.40;;
77880;SDS011;67077;50.298;18.996;2023-09-12T15:33:21;13.80;;;10.10;;
77880;SDS011;67077;50.298;18.996;2023-09-12T15:35:50;16.50;;;10.40;;
77880;SDS011;67077;50.298;18.996;2023-09-12T15:38:18;13.90;;;10.00;;
77880;SDS011;67077;50.298;18.996;2023-09-12T15:40:45;14.20;;;10.00;;
77880;SDS011;67077;50.298;18.996;2023-09-12T15:43:13;13.00;;;10.40;;
77880;SDS011;67077;50.298;18.996;2023-09-12T15:45:41;15.00;;;10.50;;
77880;SDS011;67077;50.298;18.996;2023-09-12T15:48:09;13.10;;;10.20;;
77880;SDS011;67077;50.298;18.996;2023-09-12T15:50:38;14.10;;;10.50;;
77880;SDS011;67077;50.298;18.996;2023-09-12T15:53:06;14.60;;;10.70;;
77880;SDS011;67077;50.298;18.996;2023-09-12T15:55:33;17.00;;;11.10;;
77880;SDS011;67077;50.298;18.996;2023-09-12T15:58:01;17.00;;;10.80;;
77880;SDS011;67077;50.298;18.996;2023-09-12T16:00:29;16.90;;;11.20;;
77880;SDS011;67077;50.298;18.996;2023-09-12T16:02:57;19.00;;;11.20;;
77880;SDS011;67077;50.298;18.996;2023-09-12T16:05:25;14.40;;;11.00;;
77880;SDS011;67077;50.298;18.996;2023-09-12T16:07:53;14.70;;;10.60;;
77880;SDS011;67077;50.298;18.996;2023-09-12T16:10:20;15.00;;;10.80;;
77880;SDS011;67077;50.298;18.996;2023-09-12T16:12:48;15.70;;;11.10;;
77880;SDS011;67077;50.298;18.996;2023-09-12T16:15:16;15.00;;;11.30;;
77880;SDS011;67077;50.298;18.996;2023-09-12T16:17:44;15.50;;;10.80;;
77880;SDS011;67077;50.298;18.996;2023-09-12T16:20:12;15.10;;;11.10;;
77880;SDS011;67077;50.298;18.996;2023-09-12T16:22:43;16.80;;;11.30;;
77880;SDS011;67077;50.298;18.996;2023-09-12T16:25:10;18.60;;;10.80;;
77880;SDS011;67077;50.298;18.996;2023-09-12T16:27:38;19.50;;;11.40;;
77880;SDS011;67077;50.298;18.996;2023-09-12T16:30:06;16.20;;;11.00;;
77880;SDS011;67077;50.298;18.996;2023-09-12T16:32:38;14.90;;;11.10;;
77880;SDS011;67077;50.298;18.996;2023-09-12T16:37:34;19.00;;;11.00;;
77880;SDS011;67077;50.298;18.996;2023-09-12T16:40:02;14.90;;;10.90;;
77880;SDS011;67077;50.298;18.996;2023-09-12T16:42:33;16.80;;;10.60;;
77880;SDS011;67077;50.298;18.996;2023-09-12T16:45:02;18.20;;;11.60;;
77880;SDS011;67077;50.298;18.996;2023-09-12T16:47:32;15.20;;;10.70;;
77880;SDS011;67077;50.298;18.996;2023-09-12T16:50:01;14.60;;;11.70;;
77880;SDS011;67077;50.298;18.996;2023-09-12T16:52:30;16.40;;;11.40;;
77880;SDS011;67077;50.298;18.996;2023-09-12T16:55:08;16.20;;;11.10;;
77880;SDS011;67077;50.298;18.996;2023-09-12T16:57:38;21.10;;;11.90;;
77880;SDS011;67077;50.298;18.996;2023-09-12T17:00:08;18.50;;;13.30;;
77880;SDS011;67077;50.298;18.996;2023-09-12T17:02:38;18.40;;;13.50;;
77880;SDS011;67077;50.298;18.996;2023-09-12T17:05:06;21.60;;;13.00;;
77880;SDS011;67077;50.298;18.996;2023-09-12T17:07:34;21.80;;;12.80;;
77880;SDS011;67077;50.298;18.996;2023-09-12T17:10:02;17.90;;;12.60;;
77880;SDS011;67077;50.298;18.996;2023-09-12T17:12:31;19.50;;;13.00;;
77880;SDS011;67077;50.298;18.996;2023-09-12T17:14:58;15.40;;;11.70;;
77880;SDS011;67077;50.298;18.996;2023-09-12T17:17:27;31.20;;;13.20;;
77880;SDS011;67077;50.298;18.996;2023-09-12T17:19:55;18.60;;;12.00;;
77880;SDS011;67077;50.298;18.996;2023-09-12T17:22:24;19.20;;;12.90;;
77880;SDS011;67077;50.298;18.996;2023-09-12T17:24:52;21.20;;;12.40;;
77880;SDS011;67077;50.298;18.996;2023-09-12T17:27:20;13.80;;;11.10;;
77880;SDS011;67077;50.298;18.996;2023-09-12T17:29:47;19.40;;;12.10;;
77880;SDS011;67077;50.298;18.996;2023-09-12T17:32:15;16.00;;;12.00;;
77880;SDS011;67077;50.298;18.996;2023-09-12T17:34:44;19.20;;;12.00;;
77880;SDS011;67077;50.298;18.996;2023-09-12T17:37:17;16.20;;;12.00;;
77880;SDS011;67077;50.298;18.996;2023-09-12T17:39:46;16.50;;;11.60;;
77880;SDS011;67077;50.298;18.996;2023-09-12T17:42:14;15.70;;;11.90;;
77880;SDS011;67077;50.298;18.996;2023-09-12T17:44:42;16.90;;;12.60;;
77880;SDS011;67077;50.298;18.996;2023-09-12T17:47:10;20.70;;;12.10;;
77880;SDS011;67077;50.298;18.996;2023-09-12T17:49:37;21.00;;;13.00;;
77880;SDS011;67077;50.298;18.996;2023-09-12T17:52:05;19.60;;;12.00;;
77880;SDS011;67077;50.298;18.996;2023-09-12T17:54:33;18.60;;;12.60;;
77880;SDS011;67077;50.298;18.996;2023-09-12T17:57:01;20.30;;;13.00;;
77880;SDS011;67077;50.298;18.996;2023-09-12T17:59:29;19.90;;;12.70;;
77880;SDS011;67077;50.298;18.996;2023-09-12T18:01:58;14.90;;;13.10;;
77880;SDS011;67077;50.298;18.996;2023-09-12T18:04:27;17.40;;;12.90;;
77880;SDS011;67077;50.298;18.996;2023-09-12T18:06:55;19.00;;;12.90;;
77880;SDS011;67077;50.298;18.996;2023-09-12T18:09:24;20.10;;;13.00;;
77880;SDS011;67077;50.298;18.996;2023-09-12T18:11:52;18.70;;;14.30;;
77880;SDS011;67077;50.298;18.996;2023-09-12T18:14:20;21.30;;;14.00;;
77880;SDS011;67077;50.298;18.996;2023-09-12T18:16:49;20.20;;;14.80;;
77880;SDS011;67077;50.298;18.996;2023-09-12T18:19:17;18.30;;;13.90;;
77880;SDS011;67077;50.298;18.996;2023-09-12T18:21:45;21.50;;;14.10;;
77880;SDS011;67077;50.298;18.996;2023-09-12T18:24:13;21.10;;;14.40;;
77880;SDS011;67077;50.298;18.996;2023-09-12T18:26:40;19.90;;;15.00;;
77880;SDS011;67077;50.298;18.996;2023-09-12T18:29:08;23.00;;;15.90;;
77880;SDS011;67077;50.298;18.996;2023-09-12T18:31:37;21.70;;;16.30;;
77880;SDS011;67077;50.298;18.996;2023-09-12T18:34:05;20.60;;;15.00;;
77880;SDS011;67077;50.298;18.996;2023-09-12T18:36:33;22.40;;;16.20;;
77880;SDS011;67077;50.298;18.996;2023-09-12T18:39:01;30.30;;;17.00;;
77880;SDS011;67077;50.298;18.996;2023-09-12T18:41:32;28.00;;;16.90;;
77880;SDS011;67077;50.298;18.996;2023-09-12T18:44:03;23.80;;;16.70;;
77880;SDS011;67077;50.298;18.996;2023-09-12T18:46:32;23.90;;;16.20;;
77880;SDS011;67077;50.298;18.996;2023-09-12T18:49:00;25.60;;;16.40;;
77880;SDS011;67077;50.298;18.996;2023-09-12T18:51:28;25.40;;;16.00;;
77880;SDS011;67077;50.298;18.996;2023-09-12T18:53:56;23.80;;;15.70;;
77880;SDS011;67077;50.298;18.996;2023-09-12T18:56:24;26.10;;;16.70;;
77880;SDS011;67077;50.298;18.996;2023-09-12T18:58:52;26.30;;;17.60;;
77880;SDS011;67077;50.298;18.996;2023-09-12T19:01:19;27.10;;;17.80;;
77880;SDS011;67077;50.298;18.996;2023-09-12T19:03:48;29.30;;;19.00;;
77880;SDS011;67077;50.298;18.996;2023-09-12T19:06:16;31.90;;;19.00;;
77880;SDS011;67077;50.298;18.996;2023-09-12T19:08:44;42.40;;;18.10;;
77880;SDS011;67077;50.298;18.996;2023-09-12T19:11:12;30.10;;;18.30;;
77880;SDS011;67077;50.298;18.996;2023-09-12T19:13:40;28.30;;;18.00;;
77880;SDS011;67077;50.298;18.996;2023-09-12T19:16:09;28.50;;;18.40;;
77880;SDS011;67077;50.298;18.996;2023-09-12T19:18:37;25.80;;;18.30;;
77880;SDS011;67077;50.298;18.996;2023-09-12T19:21:05;30.40;;;18.60;;
77880;SDS011;67077;50.298;18.996;2023-09-12T19:23:33;30.20;;;18.60;;
77880;SDS011;67077;50.298;18.996;2023-09-12T19:26:01;32.20;;;19.60;;
77880;SDS011;67077;50.298;18.996;2023-09-12T19:28:29;29.70;;;18.60;;
77880;SDS011;67077;50.298;18.996;2023-09-12T19:30:56;30.20;;;18.90;;
77880;SDS011;67077;50.298;18.996;2023-09-12T19:33:24;32.90;;;19.20;;
77880;SDS011;67077;50.298;18.996;2023-09-12T19:35:52;30.30;;;18.40;;
77880;SDS011;67077;50.298;18.996;2023-09-12T19:38:20;33.80;;;19.10;;
77880;SDS011;67077;50.298;18.996;2023-09-12T19:40:56;30.70;;;18.80;;
77880;SDS011;67077;50.298;18.996;2023-09-12T19:43:25;26.10;;;18.10;;
77880;SDS011;67077;50.298;18.996;2023-09-12T19:45:54;31.00;;;18.40;;
77880;SDS011;67077;50.298;18.996;2023-09-12T19:48:25;29.50;;;18.40;;
77880;SDS011;67077;50.298;18.996;2023-09-12T19:50:53;28.00;;;17.80;;
77880;SDS011;67077;50.298;18.996;2023-09-12T19:53:22;28.80;;;18.00;;
77880;SDS011;67077;50.298;18.996;2023-09-12T19:55:51;30.10;;;18.30;;
77880;SDS011;67077;50.298;18.996;2023-09-12T19:58:23;32.40;;;18.40;;
77880;SDS011;67077;50.298;18.996;2023-09-12T20:00:57;26.20;;;17.10;;
77880;SDS011;67077;50.298;18.996;2023-09-12T20:03:28;27.90;;;17.60;;
77880;SDS011;67077;50.298;18.996;2023-09-12T20:05:56;28.90;;;17.70;;
77880;SDS011;67077;50.298;18.996;2023-09-12T20:08:24;25.80;;;17.90;;
77880;SDS011;67077;50.298;18.996;2023-09-12T20:10:53;32.20;;;17.40;;
77880;SDS011;67077;50.298;18.996;2023-09-12T20:13:22;25.60;;;16.70;;
77880;SDS011;67077;50.298;18.996;2023-09-12T20:15:50;23.00;;;15.90;;
77880;SDS011;67077;50.298;18.996;2023-09-12T20:18:19;24.80;;;16.50;;
77880;SDS011;67077;50.298;18.996;2023-09-12T20:20:47;22.00;;;16.00;;
77880;SDS011;67077;50.298;18.996;2023-09-12T20:23:15;23.90;;;15.50;;
77880;SDS011;67077;50.298;18.996;2023-09-12T20:25:43;23.30;;;15.80;;
77880;SDS011;67077;50.298;18.996;2023-09-12T20:28:11;29.70;;;16.50;;
77880;SDS011;67077;50.298;18.996;2023-09-12T20:30:39;24.00;;;17.30;;
77880;SDS011;67077;50.298;18.996;2023-09-12T20:33:08;29.70;;;17.50;;
77880;SDS011;67077;50.298;18.996;2023-09-12T20:35:35;25.80;;;18.30;;
77880;SDS011;67077;50.298;18.996;2023-09-12T20:38:04;28.30;;;19.30;;
77880;SDS011;67077;50.298;18.996;2023-09-12T20:40:34;30.90;;;19.50;;
77880;SDS011;67077;50.298;18.996;2023-09-12T20:43:03;27.40;;;18.40;;
77880;SDS011;67077;50.298;18.996;2023-09-12T20:45:31;26.50;;;17.90;;
77880;SDS011;67077;50.298;18.996;2023-09-12T20:47:59;30.10;;;18.80;;
77880;SDS011;67077;50.298;18.996;2023-09-12T20:50:28;27.30;;;18.20;;
77880;SDS011;67077;50.298;18.996;2023-09-12T20:53:01;28.10;;;17.60;;
77880;SDS011;67077;50.298;18.996;2023-09-12T20:55:40;25.00;;;17.70;;
77880;SDS011;67077;50.298;18.996;2023-09-12T20:58:08;28.40;;;17.50;;
77880;SDS011;67077;50.298;18.996;2023-09-12T21:00:37;29.90;;;18.20;;
77880;SDS011;67077;50.298;18.996;2023-09-12T21:03:05;28.00;;;18.60;;
77880;SDS011;67077;50.298;18.996;2023-09-12T21:05:33;28.10;;;18.90;;
77880;SDS011;67077;50.298;18.996;2023-09-12T21:08:01;27.80;;;19.50;;
77880;SDS011;67077;50.298;18.996;2023-09-12T21:10:30;29.70;;;18.80;;
77880;SDS011;67077;50.298;18.996;2023-09-12T21:12:58;30.20;;;19.60;;
77880;SDS011;67077;50.298;18.996;2023-09-12T21:15:26;29.40;;;18.50;;
77880;SDS011;67077;50.298;18.996;2023-09-12T21:17:55;28.90;;;19.00;;
77880;SDS011;67077;50.298;18.996;2023-09-12T21:20:23;31.10;;;20.10;;
77880;SDS011;67077;50.298;18.996;2023-09-12T21:22:51;27.50;;;20.20;;
77880;SDS011;67077;50.298;18.996;2023-09-12T21:25:19;31.90;;;20.50;;
77880;SDS011;67077;50.298;18.996;2023-09-12T21:27:47;27.30;;;19.10;;
77880;SDS011;67077;50.298;18.996;2023-09-12T21:30:15;27.70;;;20.50;;
77880;SDS011;67077;50.298;18.996;2023-09-12T21:32:43;32.40;;;19.90;;
77880;SDS011;67077;50.298;18.996;2023-09-12T21:35:12;29.70;;;20.30;;
77880;SDS011;67077;50.298;18.996;2023-09-12T21:37:46;30.30;;;19.50;;
77880;SDS011;67077;50.298;18.996;2023-09-12T21:40:14;27.80;;;19.70;;
77880;SDS011;67077;50.298;18.996;2023-09-12T21:42:43;29.40;;;20.60;;
77880;SDS011;67077;50.298;18.996;2023-09-12T21:45:11;33.30;;;21.40;;
77880;SDS011;67077;50.298;18.996;2023-09-12T21:47:41;29.40;;;20.60;;
77880;SDS011;67077;50.298;18.996;2023-09-12T21:50:10;27.90;;;20.20;;
77880;SDS011;67077;50.298;18.996;2023-09-12T21:52:38;28.80;;;19.00;;
77880;SDS011;67077;50.298;18.996;2023-09-12T21:55:07;29.50;;;20.00;;
77880;SDS011;67077;50.298;18.996;2023-09-12T21:57:35;33.10;;;20.60;;
77880;SDS011;67077;50.298;18.996;2023-09-12T22:00:03;27.70;;;19.90;;
77880;SDS011;67077;50.298;18.996;2023-09-12T22:02:46;31.90;;;20.60;;
77880;SDS011;67077;50.298;18.996;2023-09-12T22:05:14;29.80;;;20.80;;
77880;SDS011;67077;50.298;18.996;2023-09-12T22:07:42;30.40;;;20.00;;
77880;SDS011;67077;50.298;18.996;2023-09-12T22:10:09;30.80;;;20.10;;
77880;SDS011;67077;50.298;18.996;2023-09-12T22:12:38;32.70;;;19.40;;
77880;SDS011;67077;50.298;18.996;2023-09-12T22:15:06;27.70;;;19.30;;
77880;SDS011;67077;50.298;18.996;2023-09-12T22:17:35;25.70;;;19.60;;
77880;SDS011;67077;50.298;18.996;2023-09-12T22:20:03;31.60;;;20.60;;
77880;SDS011;67077;50.298;18.996;2023-09-12T22:22:33;35.80;;;21.40;;
77880;SDS011;67077;50.298;18.996;2023-09-12T22:25:01;32.30;;;20.50;;
77880;SDS011;67077;50.298;18.996;2023-09-12T22:27:28;28.90;;;20.70;;
77880;SDS011;67077;50.298;18.996;2023-09-12T22:29:56;31.00;;;20.60;;
77880;SDS011;67077;50.298;18.996;2023-09-12T22:32:24;26.50;;;19.90;;
77880;SDS011;67077;50.298;18.996;2023-09-12T22:34:52;29.30;;;20.30;;
77880;SDS011;67077;50.298;18.996;2023-09-12T22:37:20;32.90;;;20.90;;
77880;SDS011;67077;50.298;18.996;2023-09-12T22:39:48;30.50;;;20.00;;
77880;SDS011;67077;50.298;18.996;2023-09-12T22:42:18;29.30;;;20.20;;
77880;SDS011;67077;50.298;18.996;2023-09-12T22:44:45;27.70;;;18.90;;
77880;SDS011;67077;50.298;18.996;2023-09-12T22:47:13;31.60;;;21.10;;
77880;SDS011;67077;50.298;18.996;2023-09-12T22:49:41;30.90;;;21.40;;
77880;SDS011;67077;50.298;18.996;2023-09-12T22:52:09;35.80;;;22.30;;
77880;SDS011;67077;50.298;18.996;2023-09-12T22:54:38;32.00;;;21.50;;
77880;SDS011;67077;50.298;18.996;2023-09-12T22:57:06;36.50;;;22.00;;
77880;SDS011;67077;50.298;18.996;2023-09-12T22:59:34;32.10;;;21.80;;
77880;SDS011;67077;50.298;18.996;2023-09-12T23:02:02;33.50;;;22.40;;
77880;SDS011;67077;50.298;18.996;2023-09-12T23:04:30;31.30;;;21.40;;
77880;SDS011;67077;50.298;18.996;2023-09-12T23:06:57;34.00;;;22.80;;
77880;SDS011;67077;50.298;18.996;2023-09-12T23:09:25;36.00;;;22.90;;
77880;SDS011;67077;50.298;18.996;2023-09-12T23:11:53;39.30;;;24.30;;
77880;SDS011;67077;50.298;18.996;2023-09-12T23:14:21;32.50;;;22.30;;
77880;SDS011;67077;50.298;18.996;2023-09-12T23:16:49;32.50;;;21.90;;
77880;SDS011;67077;50.298;18.996;2023-09-12T23:19:17;31.60;;;21.70;;
77880;SDS011;67077;50.298;18.996;2023-09-12T23:21:45;38.00;;;23.60;;
77880;SDS011;67077;50.298;18.996;2023-09-12T23:24:14;38.50;;;24.80;;
77880;SDS011;67077;50.298;18.996;2023-09-12T23:26:42;36.60;;;25.50;;
77880;SDS011;67077;50.298;18.996;2023-09-12T23:29:10;41.70;;;24.90;;
77880;SDS011;67077;50.298;18.996;2023-09-12T23:31:38;36.70;;;26.60;;
77880;SDS011;67077;50.298;18.996;2023-09-12T23:34:06;42.30;;;26.30;;
77880;SDS011;67077;50.298;18.996;2023-09-12T23:36:34;40.50;;;25.60;;
77880;SDS011;67077;50.298;18.996;2023-09-12T23:39:02;38.00;;;23.90;;
77880;SDS011;67077;50.298;18.996;2023-09-12T23:41:32;35.40;;;25.60;;
77880;SDS011;67077;50.298;18.996;2023-09-12T23:44:00;38.10;;;26.20;;
77880;SDS011;67077;50.298;18.996;2023-09-12T23:46:28;42.30;;;27.20;;
77880;SDS011;67077;50.298;18.996;2023-09-12T23:48:55;36.70;;;25.50;;
77880;SDS011;67077;50.298;18.996;2023-09-12T23:51:24;44.00;;;26.60;;
77880;SDS011;67077;50.298;18.996;2023-09-12T23:53:52;40.60;;;25.10;;
77880;SDS011;67077;50.298;18.996;2023-09-12T23:56:22;32.80;;;23.20;;
77880;SDS011;67077;50.298;18.996;2023-09-12T23:58:49;42.00;;;25.30;;
